Sidney Richland Municipal Airport
KSDY : now visible

Airfield :











YOU CAN JOIN US ON...

 
LOGIN :

Register | Disclaimer

   EN    FR    IT 

 









Legend :    VFR   Marginal VFR   IFR   Intensive IFR   Very Intensive IFR
Visi :
Ceiling :
>= 8 km
>= 3000ft
5 to 8 km
1000 to 3000 ft
1500m to 5 km
500 to 1000 ft
800 to 1500m
200 to 500 ft
< 800m
< 200 ft
Symbols :   Thunderstorms  Fog  Heavy snow  Heavy precipitations  Wind > 20 kt






- Airport Elevation : 1985 ft


KSDY - Sidney Richland Municipal

CURRENT METAR :
  • 121856Z AUTO 16005KT 10SM OVC005 M07/M09 A2989 RMK AO2 SNB06E21 SLP519 P0000 T10721094 FZRANO

EXPIRED METARs :
  • 121756Z AUTO 17005KT 7SM OVC005 M08/M10 A2992 RMK AO2 SNB26E54 SLP529 P0000 60000 T10831100 11083 21117 58010 FZRANO
  • 121656Z AUTO 15004KT 4SM BR OVC005 M09/M11 A2994 RMK AO2 SNE35 SLP535 P0000 T10891106 FZRANO
  • 121636Z AUTO 16003KT 4SM BR OVC005 M09/M11 A2994 RMK AO2 SNE35 P0000 FZRANO
  • 121610Z AUTO 16003KT 3SM -SN BR OVC003 M10/M11 A2995 RMK AO2 P0000 FZRANO

TAF KSDY
Valid from the 12 at 18:00 until the 13 at 18:00 UTC


121722Z 1218/1318 VRB05KT P6SM SCT008 BKN025
TEMPO 1218/1220 -SN BKN008
FM130000 VRB04KT 5SM -SN OVC015
PROB30 1303/1306 5SM -SN OVC006
FM131300 32009KT P6SM SCT005



MET'MAP, your aeronautical weather chart ! - Copyright ORBIFLY December 2007 - Disclaimer

ORBIFLY MET'MAP TEAM :

Programming & Development : Alexandra Zaïnal
Concept & original design : Baudouin d'Aumeries
Assistance for programming : Marc-Olivier Méhu
Technical & hardware support : Manuel Goepfert

Contact : metmap@orbifly.com




SOURCES & CREDITS :

   NOAA       Earth
Advisory